UAL9 KDEN-KEWR
Flight info
| Callsign | UAL9 |
|---|---|
| Flight time | N/A |
| Altitude | 35000 |
| Route | EMMYS8 ZIRKL LEFAM SPI WWODD RINTE KLYNE Q29 WWSHR DORET J584 SLT FQM3 |
| Aircraft | A321/M-SDE2E3FGHIRWXY/LB1 |
Departure
| Time | 2026-05-03 23:42 |
|---|---|
| Airport | Denver International Airport (KDEN) |
Arrival
| Time | N/A |
|---|---|
| Airport | Newark Liberty International Airport (KEWR) |
| Time | Latitude | Longitude | Altitude | Speed | Heading |
|---|---|---|---|---|---|
| 2026-05-03 23:21 | 39.85792 | -104.66835 | 5386 ft | 0 kts | 1° |
| 2026-05-03 23:27 | 39.85781 | -104.66836 | 5383 ft | 4 kts | 8° |
| 2026-05-03 23:27 | 39.85760 | -104.66839 | 5384 ft | 4 kts | 5° |
| 2026-05-03 23:27 | 39.85747 | -104.66840 | 5385 ft | 0 kts | 5° |
| 2026-05-03 23:28 | 39.85741 | -104.66841 | 5385 ft | 1 kts | 5° |
| 2026-05-03 23:28 | 39.85731 | -104.66842 | 5385 ft | 1 kts | 5° |
| 2026-05-03 23:28 | 39.85721 | -104.66843 | 5383 ft | 1 kts | 5° |
| 2026-05-03 23:29 | 39.85710 | -104.66845 | 5384 ft | 2 kts | 5° |
| 2026-05-03 23:29 | 39.85708 | -104.66845 | 5384 ft | 0 kts | 5° |
| 2026-05-03 23:34 | 39.85715 | -104.66847 | 5384 ft | 3 kts | 347° |
| 2026-05-03 23:35 | 39.85730 | -104.66889 | 5386 ft | 8 kts | 274° |
| 2026-05-03 23:35 | 39.85707 | -104.66977 | 5386 ft | 12 kts | 218° |
| 2026-05-03 23:35 | 39.85645 | -104.67031 | 5386 ft | 10 kts | 217° |
| 2026-05-03 23:35 | 39.85596 | -104.67099 | 5386 ft | 12 kts | 246° |
| 2026-05-03 23:36 | 39.85590 | -104.67216 | 5386 ft | 14 kts | 270° |
| 2026-05-03 23:36 | 39.85591 | -104.67356 | 5386 ft | 17 kts | 271° |
| 2026-05-03 23:36 | 39.85592 | -104.67517 | 5386 ft | 19 kts | 271° |
| 2026-05-03 23:36 | 39.85589 | -104.67710 | 5383 ft | 23 kts | 266° |
| 2026-05-03 23:37 | 39.85592 | -104.67918 | 5386 ft | 22 kts | 271° |
| 2026-05-03 23:37 | 39.85593 | -104.68081 | 5386 ft | 14 kts | 270° |
| 2026-05-03 23:37 | 39.85595 | -104.68218 | 5386 ft | 16 kts | 271° |
| 2026-05-03 23:37 | 39.85596 | -104.68377 | 5376 ft | 12 kts | 269° |
| 2026-05-03 23:38 | 39.85596 | -104.68416 | 5373 ft | 3 kts | 271° |
| 2026-05-03 23:38 | 39.85600 | -104.68461 | 5370 ft | 7 kts | 285° |
| 2026-05-03 23:38 | 39.85645 | -104.68508 | 5368 ft | 11 kts | 344° |
| 2026-05-03 23:38 | 39.85734 | -104.68513 | 5368 ft | 16 kts | 359° |
| 2026-05-03 23:39 | 39.85878 | -104.68513 | 5367 ft | 26 kts | 0° |
| 2026-05-03 23:39 | 39.86097 | -104.68510 | 5364 ft | 36 kts | 0° |
| 2026-05-03 23:39 | 39.86301 | -104.68511 | 5366 ft | 22 kts | 1° |
| 2026-05-03 23:39 | 39.86403 | -104.68524 | 5367 ft | 10 kts | 328° |
| 2026-05-03 23:40 | 39.86425 | -104.68576 | 5365 ft | 0 kts | 278° |
| 2026-05-03 23:40 | 39.86425 | -104.68579 | 5367 ft | 2 kts | 278° |
| 2026-05-03 23:40 | 39.86429 | -104.68632 | 5367 ft | 9 kts | 273° |
| 2026-05-03 23:40 | 39.86457 | -104.68712 | 5366 ft | 12 kts | 331° |
| 2026-05-03 23:41 | 39.86515 | -104.68720 | 5366 ft | 5 kts | 1° |
| 2026-05-03 23:41 | 39.86568 | -104.68719 | 5365 ft | 14 kts | 0° |
| 2026-05-03 23:41 | 39.86881 | -104.68721 | 5361 ft | 80 kts | 1° |
| 2026-05-03 23:41 | 39.87645 | -104.68709 | 5365 ft | 137 kts | 0° |
| 2026-05-03 23:42 | 39.88750 | -104.68696 | 5360 ft | 183 kts | 0° |
| 2026-05-03 23:42 | 39.90095 | -104.68660 | 5774 ft | 196 kts | 0° |
| 2026-05-03 23:42 | 39.91496 | -104.68627 | 6414 ft | 208 kts | 1° |
| 2026-05-03 23:42 | 39.92992 | -104.68377 | 6474 ft | 231 kts | 16° |
| 2026-05-03 23:43 | 39.94427 | -104.67243 | 6438 ft | 252 kts | 46° |
| 2026-05-03 23:43 | 39.95316 | -104.65216 | 6557 ft | 266 kts | 71° |
| 2026-05-03 23:43 | 39.95737 | -104.62818 | 6662 ft | 277 kts | 78° |
| 2026-05-03 23:43 | 39.95833 | -104.60278 | 6780 ft | 286 kts | 90° |
| 2026-05-03 23:44 | 39.95791 | -104.57674 | 6904 ft | 294 kts | 91° |
| 2026-05-03 23:44 | 39.95745 | -104.54981 | 7108 ft | 299 kts | 91° |
| 2026-05-03 23:44 | 39.95698 | -104.52257 | 7500 ft | 301 kts | 90° |
| 2026-05-03 23:44 | 39.95650 | -104.49523 | 8124 ft | 303 kts | 89° |
| 2026-05-03 23:45 | 39.95602 | -104.46772 | 8726 ft | 304 kts | 90° |
| 2026-05-03 23:45 | 39.95553 | -104.44011 | 9325 ft | 306 kts | 90° |
| 2026-05-03 23:45 | 39.95502 | -104.41222 | 9885 ft | 310 kts | 91° |
| 2026-05-03 23:45 | 39.95173 | -104.38383 | 10109 ft | 326 kts | 103° |